EZY93JE EGGD-LTBS
Flight info
| Callsign | EZY93JE |
|---|---|
| Flight time | 3h 45m |
| Altitude | 35000 |
| Route | YORQI DCT NUCHU L607 KONAN DCT KOK DCT REMBA DCT ARCKY DCT LIRSU DCT KRH DCT KUNOD DCT GEDSO DCT VEKEN DCT DARZA DCT NAVSU/N0444F370 DCT SOLGU DCT MEDUX UM867 KOGAT DCT DISOR DCT RIKSO UP14 ODNOD UT491 SONUP |
| Aircraft | A320/M-SDE3FGHIRWY/LB1 |
Departure
| Time | 2026-04-14 09:32 |
|---|---|
| Airport | Bristol Airport (EGGD) |
Arrival
| Time | 2026-04-14 13:17 |
|---|---|
| Airport | Dalaman International Airport (LTBS) |
| Time | Latitude | Longitude | Altitude | Speed | Heading |
|---|---|---|---|---|---|
| 2026-04-14 08:55 | 51.38551 | -2.70366 | 610 ft | 0 kts | 356° |
| 2026-04-14 09:23 | 51.38532 | -2.70364 | 617 ft | 4 kts | 356° |
| 2026-04-14 09:23 | 51.38506 | -2.70361 | 622 ft | 4 kts | 354° |
| 2026-04-14 09:23 | 51.38485 | -2.70349 | 620 ft | 4 kts | 297° |
| 2026-04-14 09:23 | 51.38481 | -2.70318 | 616 ft | 3 kts | 266° |
| 2026-04-14 09:24 | 51.38481 | -2.70308 | 617 ft | 0 kts | 266° |
| 2026-04-14 09:26 | 51.38479 | -2.70359 | 617 ft | 8 kts | 267° |
| 2026-04-14 09:26 | 51.38476 | -2.70439 | 615 ft | 7 kts | 266° |
| 2026-04-14 09:26 | 51.38477 | -2.70576 | 610 ft | 15 kts | 271° |
| 2026-04-14 09:27 | 51.38474 | -2.70735 | 610 ft | 14 kts | 266° |
| 2026-04-14 09:27 | 51.38468 | -2.70878 | 624 ft | 15 kts | 266° |
| 2026-04-14 09:27 | 51.38459 | -2.71108 | 615 ft | 23 kts | 265° |
| 2026-04-14 09:27 | 51.38449 | -2.71367 | 613 ft | 25 kts | 266° |
| 2026-04-14 09:28 | 51.38437 | -2.71662 | 618 ft | 29 kts | 267° |
| 2026-04-14 09:28 | 51.38433 | -2.71982 | 606 ft | 27 kts | 270° |
| 2026-04-14 09:28 | 51.38424 | -2.72229 | 620 ft | 19 kts | 266° |
| 2026-04-14 09:28 | 51.38417 | -2.72428 | 611 ft | 17 kts | 266° |
| 2026-04-14 09:29 | 51.38409 | -2.72630 | 623 ft | 20 kts | 266° |
| 2026-04-14 09:29 | 51.38399 | -2.72865 | 606 ft | 23 kts | 266° |
| 2026-04-14 09:29 | 51.38392 | -2.73068 | 605 ft | 12 kts | 265° |
| 2026-04-14 09:29 | 51.38387 | -2.73154 | 608 ft | 4 kts | 265° |
| 2026-04-14 09:30 | 51.38383 | -2.73232 | 610 ft | 12 kts | 264° |
| 2026-04-14 09:30 | 51.38346 | -2.73324 | 626 ft | 10 kts | 213° |
| 2026-04-14 09:30 | 51.38261 | -2.73338 | 620 ft | 12 kts | 176° |
| 2026-04-14 09:30 | 51.38213 | -2.73314 | 630 ft | 5 kts | 98° |
| 2026-04-14 09:31 | 51.38213 | -2.73281 | 623 ft | 0 kts | 85° |
| 2026-04-14 09:31 | 51.38231 | -2.72867 | 629 ft | 74 kts | 86° |
| 2026-04-14 09:31 | 51.38277 | -2.71689 | 611 ft | 136 kts | 86° |
| 2026-04-14 09:31 | 51.38333 | -2.70090 | 1117 ft | 146 kts | 92° |
| 2026-04-14 09:32 | 51.38382 | -2.68468 | 1916 ft | 147 kts | 96° |
| 2026-04-14 09:32 | 51.38427 | -2.66727 | 2487 ft | 167 kts | 95° |
| 2026-04-14 09:32 | 51.38539 | -2.62517 | 3248 ft | 212 kts | 94° |
| 2026-04-14 09:33 | 51.38610 | -2.60039 | 3549 ft | 234 kts | 93° |
| 2026-04-14 09:33 | 51.38736 | -2.57289 | 3939 ft | 261 kts | 83° |
| 2026-04-14 09:33 | 51.39627 | -2.54653 | 4645 ft | 282 kts | 46° |
| 2026-04-14 09:33 | 51.41185 | -2.52762 | 5471 ft | 288 kts | 33° |
| 2026-04-14 09:34 | 51.42951 | -2.51139 | 6062 ft | 293 kts | 27° |
| 2026-04-14 09:34 | 51.44772 | -2.49650 | 6888 ft | 294 kts | 27° |
| 2026-04-14 09:34 | 51.46582 | -2.48103 | 7654 ft | 296 kts | 28° |
| 2026-04-14 09:34 | 51.48385 | -2.46446 | 8421 ft | 299 kts | 30° |
| 2026-04-14 09:35 | 51.50121 | -2.44574 | 9149 ft | 304 kts | 43° |
| 2026-04-14 09:35 | 51.51353 | -2.41874 | 9881 ft | 306 kts | 67° |
| 2026-04-14 09:35 | 51.51856 | -2.38563 | 10537 ft | 307 kts | 90° |
| 2026-04-14 09:35 | 51.51712 | -2.35066 | 10872 ft | 323 kts | 97° |
| 2026-04-14 09:36 | 51.51459 | -2.31349 | 11023 ft | 346 kts | 98° |
| 2026-04-14 09:36 | 51.51175 | -2.27437 | 11400 ft | 358 kts | 98° |
| 2026-04-14 09:36 | 51.50881 | -2.23427 | 11974 ft | 364 kts | 98° |
| 2026-04-14 09:36 | 51.50593 | -2.19407 | 12588 ft | 368 kts | 98° |
| 2026-04-14 09:37 | 51.50301 | -2.15280 | 13190 ft | 373 kts | 98° |
| 2026-04-14 09:37 | 51.50010 | -2.11111 | 13798 ft | 377 kts | 97° |
| 2026-04-14 09:37 | 51.49720 | -2.06941 | 14356 ft | 382 kts | 97° |
| 2026-04-14 09:37 | 51.49421 | -2.02675 | 14978 ft | 386 kts | 97° |
| 2026-04-14 09:38 | 51.49117 | -1.98361 | 15591 ft | 391 kts | 97° |
| 2026-04-14 09:38 | 51.48807 | -1.94008 | 16158 ft | 395 kts | 97° |
| 2026-04-14 09:38 | 51.48491 | -1.89608 | 16701 ft | 398 kts | 96° |
| 2026-04-14 09:38 | 51.48170 | -1.85166 | 17242 ft | 401 kts | 96° |
| 2026-04-14 09:39 | 51.47851 | -1.80747 | 17735 ft | 405 kts | 96° |
| 2026-04-14 09:39 | 51.47522 | -1.76229 | 18238 ft | 409 kts | 96° |
| 2026-04-14 09:39 | 51.47188 | -1.71678 | 18680 ft | 412 kts | 96° |
| 2026-04-14 09:39 | 51.46811 | -1.67090 | 19106 ft | 416 kts | 100° |
| 2026-04-14 09:40 | 51.46203 | -1.62531 | 19519 ft | 420 kts | 102° |
| 2026-04-14 09:40 | 51.45584 | -1.57924 | 19933 ft | 423 kts | 99° |
| 2026-04-14 09:40 | 51.45177 | -1.53236 | 20345 ft | 426 kts | 96° |
| 2026-04-14 09:40 | 51.44842 | -1.48561 | 20768 ft | 429 kts | 95° |
| 2026-04-14 09:41 | 51.44499 | -1.43787 | 21181 ft | 432 kts | 95° |
| 2026-04-14 09:41 | 51.44137 | -1.38975 | 21605 ft | 435 kts | 96° |
| 2026-04-14 09:41 | 51.43762 | -1.34131 | 22023 ft | 438 kts | 96° |
| 2026-04-14 09:41 | 51.43384 | -1.29317 | 22400 ft | 441 kts | 96° |
| 2026-04-14 09:42 | 51.42998 | -1.24416 | 22791 ft | 445 kts | 95° |
| 2026-04-14 09:42 | 51.42608 | -1.19465 | 23174 ft | 448 kts | 95° |
| 2026-04-14 09:42 | 51.42215 | -1.14488 | 23554 ft | 451 kts | 95° |
| 2026-04-14 09:42 | 51.41820 | -1.09544 | 23872 ft | 454 kts | 95° |
| 2026-04-14 09:43 | 51.41413 | -1.04508 | 24175 ft | 457 kts | 95° |
| 2026-04-14 09:43 | 51.41006 | -0.99439 | 24484 ft | 460 kts | 95° |
| 2026-04-14 09:43 | 51.40595 | -0.94342 | 24804 ft | 462 kts | 95° |
| 2026-04-14 09:43 | 51.40182 | -0.89214 | 25113 ft | 465 kts | 95° |
| 2026-04-14 09:44 | 51.39765 | -0.84067 | 25407 ft | 467 kts | 95° |
| 2026-04-14 09:44 | 51.39346 | -0.78883 | 25697 ft | 470 kts | 95° |
| 2026-04-14 09:44 | 51.38927 | -0.73727 | 26001 ft | 472 kts | 95° |
| 2026-04-14 09:44 | 51.38498 | -0.68491 | 26286 ft | 475 kts | 95° |
| 2026-04-14 09:45 | 51.38062 | -0.63229 | 26563 ft | 478 kts | 95° |
| 2026-04-14 09:45 | 51.37619 | -0.57939 | 26832 ft | 480 kts | 95° |
| 2026-04-14 09:45 | 51.37171 | -0.52600 | 27124 ft | 483 kts | 95° |
| 2026-04-14 09:45 | 51.36726 | -0.47317 | 27397 ft | 485 kts | 95° |
| 2026-04-14 09:46 | 51.36271 | -0.41946 | 27683 ft | 488 kts | 95° |
| 2026-04-14 09:46 | 51.35814 | -0.36542 | 27933 ft | 490 kts | 95° |
| 2026-04-14 09:46 | 51.35352 | -0.31112 | 28213 ft | 493 kts | 95° |
| 2026-04-14 09:46 | 51.34884 | -0.25674 | 28476 ft | 495 kts | 95° |
| 2026-04-14 09:47 | 51.34413 | -0.20265 | 28717 ft | 497 kts | 95° |
| 2026-04-14 09:47 | 51.33930 | -0.14768 | 28967 ft | 500 kts | 95° |
| 2026-04-14 09:47 | 51.33441 | -0.09260 | 29207 ft | 501 kts | 95° |
| 2026-04-14 09:47 | 51.32953 | -0.03775 | 29473 ft | 502 kts | 95° |
| 2026-04-14 09:48 | 51.32622 | -0.00042 | 29678 ft | 503 kts | 94° |
| 2026-04-14 09:48 | 51.32132 | 0.05507 | 29856 ft | 506 kts | 94° |
| 2026-04-14 09:48 | 51.31636 | 0.11103 | 30058 ft | 508 kts | 94° |
| 2026-04-14 09:48 | 51.31132 | 0.16715 | 30256 ft | 510 kts | 95° |
| 2026-04-14 09:49 | 51.30620 | 0.22325 | 30522 ft | 509 kts | 94° |
| 2026-04-14 09:49 | 51.30114 | 0.27838 | 30786 ft | 509 kts | 94° |
| 2026-04-14 09:49 | 51.29601 | 0.33432 | 31080 ft | 508 kts | 94° |
| 2026-04-14 09:49 | 51.29089 | 0.39015 | 31371 ft | 507 kts | 94° |
| 2026-04-14 09:50 | 51.28576 | 0.44589 | 31661 ft | 506 kts | 93° |
| 2026-04-14 09:50 | 51.28060 | 0.50144 | 31989 ft | 505 kts | 93° |
| 2026-04-14 09:50 | 51.27542 | 0.55687 | 32312 ft | 503 kts | 93° |
| 2026-04-14 09:50 | 51.27024 | 0.61211 | 32632 ft | 502 kts | 93° |
| 2026-04-14 09:51 | 51.26502 | 0.66724 | 32939 ft | 501 kts | 92° |
| 2026-04-14 09:51 | 51.25984 | 0.72158 | 33237 ft | 500 kts | 92° |
| 2026-04-14 09:51 | 51.25459 | 0.77652 | 33546 ft | 500 kts | 92° |
| 2026-04-14 09:51 | 51.24931 | 0.83139 | 33858 ft | 499 kts | 92° |
| 2026-04-14 09:52 | 51.24401 | 0.88622 | 34159 ft | 498 kts | 92° |
| 2026-04-14 09:52 | 51.23872 | 0.94092 | 34439 ft | 497 kts | 92° |
| 2026-04-14 09:52 | 51.23351 | 0.99475 | 34734 ft | 495 kts | 93° |
| 2026-04-14 09:52 | 51.22821 | 1.04900 | 35028 ft | 493 kts | 94° |
| 2026-04-14 09:53 | 51.22287 | 1.10315 | 35140 ft | 492 kts | 94° |
| 2026-04-14 09:53 | 51.21214 | 1.21093 | 35173 ft | 491 kts | 94° |
| 2026-04-14 09:54 | 51.20142 | 1.31843 | 35171 ft | 490 kts | 94° |
| 2026-04-14 09:54 | 51.19059 | 1.42580 | 35192 ft | 490 kts | 94° |
| 2026-04-14 09:55 | 51.17971 | 1.53205 | 35174 ft | 486 kts | 95° |
| 2026-04-14 09:55 | 51.16874 | 1.63842 | 35181 ft | 485 kts | 95° |
| 2026-04-14 09:56 | 51.15780 | 1.74395 | 35179 ft | 485 kts | 95° |
| 2026-04-14 09:56 | 51.14673 | 1.85012 | 35180 ft | 485 kts | 95° |
| 2026-04-14 09:57 | 51.13551 | 1.95560 | 35200 ft | 485 kts | 95° |
| 2026-04-14 09:57 | 51.12563 | 2.06152 | 35205 ft | 481 kts | 91° |
| 2026-04-14 09:58 | 51.12026 | 2.16753 | 35197 ft | 478 kts | 88° |
| 2026-04-14 09:58 | 51.11609 | 2.27332 | 35195 ft | 478 kts | 89° |
| 2026-04-14 09:59 | 51.11083 | 2.37831 | 35202 ft | 479 kts | 90° |
| 2026-04-14 09:59 | 51.10466 | 2.48395 | 35203 ft | 478 kts | 91° |
| 2026-04-14 10:00 | 51.09840 | 2.58882 | 35194 ft | 478 kts | 90° |
| 2026-04-14 10:00 | 51.08722 | 2.69378 | 35193 ft | 484 kts | 102° |
| 2026-04-14 10:01 | 51.06859 | 2.79636 | 35192 ft | 484 kts | 102° |
| 2026-04-14 10:01 | 51.04988 | 2.89928 | 35232 ft | 484 kts | 102° |
| 2026-04-14 10:02 | 51.03111 | 3.00219 | 35225 ft | 483 kts | 102° |
| 2026-04-14 10:02 | 51.01233 | 3.10420 | 35217 ft | 483 kts | 102° |
| 2026-04-14 10:03 | 50.99339 | 3.20672 | 35208 ft | 483 kts | 103° |
| 2026-04-14 10:03 | 50.97437 | 3.30913 | 35218 ft | 483 kts | 103° |
| 2026-04-14 10:04 | 50.95536 | 3.41084 | 35215 ft | 482 kts | 103° |
| 2026-04-14 10:04 | 50.93624 | 3.51287 | 35211 ft | 481 kts | 103° |
| 2026-04-14 10:05 | 50.91712 | 3.61419 | 35207 ft | 481 kts | 103° |
| 2026-04-14 10:05 | 50.89779 | 3.71571 | 35203 ft | 481 kts | 103° |
| 2026-04-14 10:06 | 50.87848 | 3.81666 | 35226 ft | 480 kts | 103° |
| 2026-04-14 10:06 | 50.85901 | 3.91802 | 35220 ft | 480 kts | 103° |
| 2026-04-14 10:07 | 50.83959 | 4.01910 | 35225 ft | 479 kts | 104° |
| 2026-04-14 10:07 | 50.82014 | 4.11951 | 35223 ft | 479 kts | 104° |
| 2026-04-14 10:08 | 50.80051 | 4.22011 | 35211 ft | 479 kts | 104° |
| 2026-04-14 10:08 | 50.78071 | 4.32098 | 35216 ft | 478 kts | 104° |
| 2026-04-14 10:09 | 50.76098 | 4.42081 | 35218 ft | 478 kts | 104° |
| 2026-04-14 10:09 | 50.74114 | 4.52123 | 35219 ft | 478 kts | 104° |
| 2026-04-14 10:10 | 50.72115 | 4.62138 | 35215 ft | 478 kts | 104° |
| 2026-04-14 10:10 | 50.70118 | 4.72087 | 35229 ft | 478 kts | 104° |
| 2026-04-14 10:11 | 50.68107 | 4.82076 | 35230 ft | 477 kts | 104° |
| 2026-04-14 10:11 | 50.66022 | 4.92002 | 35230 ft | 478 kts | 110° |
| 2026-04-14 10:12 | 50.63277 | 5.01513 | 35225 ft | 479 kts | 112° |
| 2026-04-14 10:12 | 50.60494 | 5.11053 | 35222 ft | 478 kts | 112° |
| 2026-04-14 10:13 | 50.57706 | 5.20573 | 35234 ft | 478 kts | 112° |
| 2026-04-14 10:13 | 50.54918 | 5.30017 | 35229 ft | 477 kts | 112° |
| 2026-04-14 10:14 | 50.52112 | 5.39472 | 35214 ft | 476 kts | 112° |
| 2026-04-14 10:14 | 50.49332 | 5.48846 | 35214 ft | 476 kts | 112° |
| 2026-04-14 10:15 | 50.46528 | 5.58271 | 35212 ft | 476 kts | 112° |
| 2026-04-14 10:15 | 50.43713 | 5.67676 | 35217 ft | 474 kts | 112° |
| 2026-04-14 10:16 | 50.40898 | 5.77024 | 35212 ft | 474 kts | 112° |
| 2026-04-14 10:16 | 50.38075 | 5.86354 | 35210 ft | 473 kts | 113° |
| 2026-04-14 10:17 | 50.35270 | 5.95607 | 35195 ft | 473 kts | 113° |
| 2026-04-14 10:17 | 50.32457 | 6.04909 | 35207 ft | 472 kts | 114° |
| 2026-04-14 10:18 | 50.28143 | 6.18734 | 35206 ft | 470 kts | 116° |
| 2026-04-14 10:18 | 50.24997 | 6.27633 | 35184 ft | 470 kts | 118° |
| 2026-04-14 10:19 | 50.21788 | 6.36476 | 35184 ft | 469 kts | 117° |
| 2026-04-14 10:19 | 50.18517 | 6.45322 | 35183 ft | 470 kts | 124° |
| 2026-04-14 10:20 | 50.14413 | 6.53252 | 35186 ft | 469 kts | 129° |
| 2026-04-14 10:20 | 50.10236 | 6.60988 | 35202 ft | 468 kts | 129° |
| 2026-04-14 10:21 | 50.06016 | 6.68756 | 35201 ft | 468 kts | 129° |
| 2026-04-14 10:21 | 50.01831 | 6.76459 | 35198 ft | 468 kts | 129° |
| 2026-04-14 10:22 | 49.97623 | 6.84188 | 35193 ft | 468 kts | 129° |
| 2026-04-14 10:22 | 49.93435 | 6.91861 | 35195 ft | 467 kts | 130° |
| 2026-04-14 10:23 | 49.89214 | 6.99555 | 35185 ft | 466 kts | 130° |
| 2026-04-14 10:23 | 49.85004 | 7.07221 | 35185 ft | 466 kts | 130° |
| 2026-04-14 10:24 | 49.80814 | 7.14816 | 35189 ft | 466 kts | 130° |
| 2026-04-14 10:24 | 49.76587 | 7.22443 | 35188 ft | 466 kts | 130° |
| 2026-04-14 10:25 | 49.72363 | 7.30046 | 35197 ft | 465 kts | 130° |
| 2026-04-14 10:25 | 49.68147 | 7.37636 | 35197 ft | 465 kts | 130° |
| 2026-04-14 10:26 | 49.63944 | 7.45179 | 35201 ft | 465 kts | 130° |
| 2026-04-14 10:26 | 49.59716 | 7.52732 | 35197 ft | 464 kts | 130° |
| 2026-04-14 10:27 | 49.55496 | 7.60267 | 35191 ft | 464 kts | 130° |
| 2026-04-14 10:27 | 49.51289 | 7.67740 | 35199 ft | 463 kts | 131° |
| 2026-04-14 10:28 | 49.47061 | 7.75221 | 35203 ft | 462 kts | 131° |
| 2026-04-14 10:28 | 49.42844 | 7.82684 | 35202 ft | 461 kts | 131° |
| 2026-04-14 10:29 | 49.38655 | 7.90070 | 35200 ft | 460 kts | 131° |
| 2026-04-14 10:29 | 49.34444 | 7.97465 | 35196 ft | 460 kts | 131° |
| 2026-04-14 10:30 | 49.30232 | 8.04855 | 35194 ft | 459 kts | 131° |
| 2026-04-14 10:30 | 49.26048 | 8.12165 | 35197 ft | 458 kts | 131° |
| 2026-04-14 10:31 | 49.21830 | 8.19520 | 35197 ft | 458 kts | 131° |
| 2026-04-14 10:31 | 49.17614 | 8.26828 | 35194 ft | 457 kts | 131° |
| 2026-04-14 10:32 | 49.13442 | 8.34058 | 35191 ft | 456 kts | 131° |
| 2026-04-14 10:32 | 49.09235 | 8.41327 | 35184 ft | 456 kts | 132° |
| 2026-04-14 10:33 | 49.05029 | 8.48571 | 35181 ft | 455 kts | 132° |
| 2026-04-14 10:33 | 49.00818 | 8.55804 | 35177 ft | 455 kts | 132° |
| 2026-04-14 10:34 | 48.94407 | 8.66459 | 35170 ft | 456 kts | 134° |
| 2026-04-14 10:35 | 48.90036 | 8.73390 | 35170 ft | 456 kts | 134° |
| 2026-04-14 10:35 | 48.85633 | 8.80347 | 35163 ft | 456 kts | 134° |
| 2026-04-14 10:36 | 48.81259 | 8.87327 | 35179 ft | 455 kts | 134° |
| 2026-04-14 10:36 | 48.76924 | 8.94274 | 35174 ft | 454 kts | 134° |
| 2026-04-14 10:37 | 48.73303 | 9.00043 | 35180 ft | 454 kts | 134° |
| 2026-04-14 10:37 | 48.68223 | 9.08084 | 35181 ft | 453 kts | 134° |
| 2026-04-14 10:38 | 48.64589 | 9.13822 | 35181 ft | 453 kts | 134° |
| 2026-04-14 10:38 | 48.60231 | 9.20694 | 35185 ft | 452 kts | 134° |
| 2026-04-14 10:39 | 48.55873 | 9.27549 | 35183 ft | 451 kts | 134° |
| 2026-04-14 10:39 | 48.51545 | 9.34330 | 35178 ft | 450 kts | 134° |
| 2026-04-14 10:40 | 48.47191 | 9.41142 | 35172 ft | 450 kts | 134° |
| 2026-04-14 10:40 | 48.42855 | 9.47913 | 35167 ft | 450 kts | 134° |
| 2026-04-14 10:41 | 48.38496 | 9.54701 | 35157 ft | 450 kts | 134° |
| 2026-04-14 10:41 | 48.34156 | 9.61456 | 35162 ft | 450 kts | 132° |
| 2026-04-14 10:42 | 48.30189 | 9.68732 | 35164 ft | 449 kts | 129° |
| 2026-04-14 10:42 | 48.26288 | 9.75991 | 35163 ft | 449 kts | 129° |
| 2026-04-14 10:43 | 48.22355 | 9.83290 | 35163 ft | 449 kts | 129° |
| 2026-04-14 10:43 | 48.18423 | 9.90561 | 35163 ft | 449 kts | 129° |
| 2026-04-14 10:44 | 48.14472 | 9.97844 | 35162 ft | 449 kts | 129° |
| 2026-04-14 10:44 | 48.10544 | 10.05060 | 35151 ft | 449 kts | 129° |
| 2026-04-14 10:45 | 48.06592 | 10.12315 | 35157 ft | 449 kts | 129° |
| 2026-04-14 10:45 | 48.02657 | 10.19508 | 35164 ft | 449 kts | 129° |
| 2026-04-14 10:46 | 47.98696 | 10.26739 | 35161 ft | 449 kts | 129° |
| 2026-04-14 10:46 | 47.94737 | 10.33957 | 35127 ft | 449 kts | 129° |
| 2026-04-14 10:47 | 47.90786 | 10.41131 | 35135 ft | 449 kts | 129° |
| 2026-04-14 10:47 | 47.86816 | 10.48315 | 35129 ft | 449 kts | 129° |
| 2026-04-14 10:48 | 47.82825 | 10.55505 | 35128 ft | 449 kts | 129° |
| 2026-04-14 10:48 | 47.78840 | 10.62681 | 35129 ft | 449 kts | 130° |
| 2026-04-14 10:49 | 47.74881 | 10.69786 | 35139 ft | 448 kts | 130° |
| 2026-04-14 10:49 | 47.70896 | 10.76920 | 35129 ft | 447 kts | 130° |
| 2026-04-14 10:50 | 47.66922 | 10.84019 | 35130 ft | 447 kts | 130° |
| 2026-04-14 10:50 | 47.62963 | 10.91073 | 35129 ft | 446 kts | 130° |
| 2026-04-14 10:51 | 47.58979 | 10.98144 | 35136 ft | 446 kts | 131° |
| 2026-04-14 10:51 | 47.55003 | 11.05197 | 35145 ft | 444 kts | 131° |
| 2026-04-14 10:52 | 47.51065 | 11.12166 | 35136 ft | 443 kts | 131° |
| 2026-04-14 10:52 | 47.47103 | 11.19140 | 35134 ft | 442 kts | 131° |
| 2026-04-14 10:53 | 47.43159 | 11.26063 | 35125 ft | 441 kts | 131° |
| 2026-04-14 10:53 | 47.39202 | 11.33017 | 35122 ft | 441 kts | 132° |
| 2026-04-14 10:54 | 47.35282 | 11.39892 | 35125 ft | 439 kts | 132° |
| 2026-04-14 10:54 | 47.31334 | 11.46781 | 35125 ft | 439 kts | 132° |
| 2026-04-14 10:55 | 47.27380 | 11.53649 | 35120 ft | 438 kts | 132° |
| 2026-04-14 10:55 | 47.23447 | 11.60453 | 35114 ft | 438 kts | 132° |
| 2026-04-14 10:56 | 47.19499 | 11.67285 | 35096 ft | 437 kts | 133° |
| 2026-04-14 10:56 | 47.15586 | 11.74065 | 35093 ft | 436 kts | 133° |
| 2026-04-14 10:57 | 47.11645 | 11.80853 | 35079 ft | 435 kts | 133° |
| 2026-04-14 10:57 | 47.07881 | 11.87834 | 35058 ft | 438 kts | 123° |
| 2026-04-14 10:58 | 47.05125 | 11.95777 | 35048 ft | 439 kts | 118° |
| 2026-04-14 10:58 | 47.02425 | 12.03850 | 35047 ft | 440 kts | 118° |
| 2026-04-14 10:59 | 46.99742 | 12.11856 | 35036 ft | 439 kts | 118° |
| 2026-04-14 10:59 | 46.97057 | 12.19853 | 35035 ft | 439 kts | 118° |
| 2026-04-14 11:00 | 46.94353 | 12.27878 | 35037 ft | 439 kts | 119° |
| 2026-04-14 11:00 | 46.91640 | 12.35891 | 35030 ft | 439 kts | 118° |
| 2026-04-14 11:01 | 46.88922 | 12.43897 | 35037 ft | 438 kts | 119° |
| 2026-04-14 11:01 | 46.86211 | 12.51838 | 35026 ft | 438 kts | 119° |
| 2026-04-14 11:02 | 46.83499 | 12.59797 | 35017 ft | 437 kts | 119° |
| 2026-04-14 11:02 | 46.80770 | 12.67752 | 35002 ft | 437 kts | 119° |
| 2026-04-14 11:03 | 46.78060 | 12.75630 | 34978 ft | 436 kts | 119° |
| 2026-04-14 11:03 | 46.75331 | 12.83553 | 34984 ft | 436 kts | 119° |
| 2026-04-14 11:04 | 46.72612 | 12.91412 | 34980 ft | 436 kts | 119° |
| 2026-04-14 11:04 | 46.69877 | 12.99313 | 34987 ft | 436 kts | 119° |
| 2026-04-14 11:05 | 46.67154 | 13.07152 | 34985 ft | 436 kts | 119° |
| 2026-04-14 11:05 | 46.64401 | 13.15053 | 34995 ft | 436 kts | 120° |
| 2026-04-14 11:06 | 46.61664 | 13.22878 | 35013 ft | 436 kts | 120° |
| 2026-04-14 11:06 | 46.58886 | 13.30741 | 35018 ft | 435 kts | 120° |
| 2026-04-14 11:07 | 46.55935 | 13.38338 | 35035 ft | 431 kts | 129° |
| 2026-04-14 11:07 | 46.51976 | 13.44827 | 35034 ft | 428 kts | 136° |
| 2026-04-14 11:08 | 46.47911 | 13.51162 | 35038 ft | 427 kts | 136° |
| 2026-04-14 11:08 | 46.43880 | 13.57444 | 35038 ft | 427 kts | 136° |
| 2026-04-14 11:09 | 46.39839 | 13.63745 | 35034 ft | 426 kts | 136° |
| 2026-04-14 11:09 | 46.35786 | 13.70044 | 35031 ft | 426 kts | 136° |
| 2026-04-14 11:10 | 46.29736 | 13.79427 | 35014 ft | 426 kts | 136° |
| 2026-04-14 11:10 | 46.25708 | 13.85654 | 35015 ft | 426 kts | 136° |
| 2026-04-14 11:11 | 46.21654 | 13.91891 | 35023 ft | 426 kts | 136° |
| 2026-04-14 11:11 | 46.17594 | 13.98126 | 35008 ft | 426 kts | 136° |
| 2026-04-14 11:12 | 46.13533 | 14.04363 | 35022 ft | 426 kts | 136° |
| 2026-04-14 11:12 | 46.09488 | 14.10575 | 35012 ft | 427 kts | 136° |
| 2026-04-14 11:13 | 46.05398 | 14.16812 | 35019 ft | 428 kts | 136° |
| 2026-04-14 11:13 | 46.01302 | 14.23035 | 35026 ft | 428 kts | 137° |
| 2026-04-14 11:14 | 45.97209 | 14.29250 | 35035 ft | 428 kts | 137° |
| 2026-04-14 11:14 | 45.93137 | 14.35424 | 35035 ft | 428 kts | 136° |
| 2026-04-14 11:15 | 45.88987 | 14.41701 | 35264 ft | 435 kts | 136° |
| 2026-04-14 11:15 | 45.86896 | 14.44853 | 35439 ft | 436 kts | 136° |
| 2026-04-14 11:15 | 45.84802 | 14.48003 | 35639 ft | 436 kts | 136° |
| 2026-04-14 11:16 | 45.82708 | 14.51155 | 35829 ft | 437 kts | 136° |
| 2026-04-14 11:16 | 45.80637 | 14.54274 | 36012 ft | 437 kts | 136° |
| 2026-04-14 11:16 | 45.78518 | 14.57470 | 36203 ft | 437 kts | 136° |
| 2026-04-14 11:16 | 45.76442 | 14.60598 | 36396 ft | 438 kts | 136° |
| 2026-04-14 11:17 | 45.74334 | 14.63761 | 36586 ft | 438 kts | 136° |
| 2026-04-14 11:17 | 45.72230 | 14.66912 | 36768 ft | 438 kts | 136° |
| 2026-04-14 11:17 | 45.70113 | 14.70076 | 36991 ft | 438 kts | 136° |
| 2026-04-14 11:17 | 45.68029 | 14.73182 | 37066 ft | 438 kts | 136° |
| 2026-04-14 11:18 | 45.63792 | 14.79500 | 37064 ft | 438 kts | 136° |
| 2026-04-14 11:18 | 45.59597 | 14.85759 | 37063 ft | 438 kts | 136° |
| 2026-04-14 11:19 | 45.55371 | 14.92040 | 37063 ft | 438 kts | 136° |
| 2026-04-14 11:19 | 45.51129 | 14.98307 | 37059 ft | 438 kts | 136° |
| 2026-04-14 11:20 | 45.47346 | 15.05155 | 37060 ft | 441 kts | 127° |
| 2026-04-14 11:20 | 45.43877 | 15.12330 | 37058 ft | 441 kts | 127° |
| 2026-04-14 11:21 | 45.40374 | 15.19540 | 37057 ft | 441 kts | 127° |
| 2026-04-14 11:21 | 45.36871 | 15.26732 | 37053 ft | 441 kts | 127° |
| 2026-04-14 11:22 | 45.33386 | 15.33867 | 37055 ft | 441 kts | 127° |
| 2026-04-14 11:22 | 45.29872 | 15.41038 | 37052 ft | 442 kts | 127° |
| 2026-04-14 11:23 | 45.26375 | 15.48161 | 37057 ft | 442 kts | 127° |
| 2026-04-14 11:23 | 45.22851 | 15.55329 | 37057 ft | 442 kts | 127° |
| 2026-04-14 11:24 | 45.19313 | 15.62497 | 37044 ft | 442 kts | 127° |
| 2026-04-14 11:24 | 45.15793 | 15.69611 | 37050 ft | 442 kts | 127° |
| 2026-04-14 11:25 | 45.12249 | 15.76753 | 37046 ft | 443 kts | 127° |
| 2026-04-14 11:25 | 45.08698 | 15.83903 | 37048 ft | 443 kts | 127° |
| 2026-04-14 11:26 | 45.05167 | 15.91009 | 37045 ft | 443 kts | 128° |
| 2026-04-14 11:26 | 45.01618 | 15.98110 | 37037 ft | 444 kts | 128° |
| 2026-04-14 11:27 | 44.98035 | 16.05242 | 37038 ft | 445 kts | 128° |
| 2026-04-14 11:27 | 44.95051 | 16.11184 | 37039 ft | 445 kts | 128° |
| 2026-04-14 11:28 | 44.91466 | 16.18319 | 37042 ft | 446 kts | 128° |
| 2026-04-14 11:28 | 44.87890 | 16.25418 | 37031 ft | 446 kts | 128° |
| 2026-04-14 11:29 | 44.84277 | 16.32552 | 37034 ft | 446 kts | 128° |
| 2026-04-14 11:29 | 44.80687 | 16.39642 | 37028 ft | 446 kts | 128° |
| 2026-04-14 11:30 | 44.77069 | 16.46784 | 37022 ft | 447 kts | 128° |
| 2026-04-14 11:30 | 44.73435 | 16.53910 | 37019 ft | 447 kts | 128° |
| 2026-04-14 11:31 | 44.69817 | 16.60984 | 37019 ft | 448 kts | 128° |
| 2026-04-14 11:31 | 44.66164 | 16.68114 | 37024 ft | 448 kts | 128° |
| 2026-04-14 11:32 | 44.62533 | 16.75188 | 37026 ft | 449 kts | 128° |
| 2026-04-14 11:32 | 44.58872 | 16.82308 | 37019 ft | 449 kts | 128° |
| 2026-04-14 11:33 | 44.55220 | 16.89377 | 37026 ft | 449 kts | 128° |
| 2026-04-14 11:34 | 44.49513 | 16.99793 | 37028 ft | 448 kts | 131° |
| 2026-04-14 11:34 | 44.45586 | 17.06604 | 37021 ft | 448 kts | 131° |
| 2026-04-14 11:35 | 44.41707 | 17.13384 | 37019 ft | 449 kts | 131° |
| 2026-04-14 11:35 | 44.37827 | 17.20227 | 37017 ft | 449 kts | 131° |
| 2026-04-14 11:36 | 44.33952 | 17.27091 | 37018 ft | 449 kts | 131° |
| 2026-04-14 11:36 | 44.30087 | 17.33892 | 37021 ft | 449 kts | 131° |
| 2026-04-14 11:37 | 44.26187 | 17.40704 | 37010 ft | 448 kts | 131° |
| 2026-04-14 11:37 | 44.22281 | 17.47524 | 36997 ft | 449 kts | 131° |
| 2026-04-14 11:38 | 44.18399 | 17.54298 | 37004 ft | 450 kts | 131° |
| 2026-04-14 11:38 | 44.14487 | 17.61117 | 37013 ft | 450 kts | 131° |
| 2026-04-14 11:39 | 44.10565 | 17.67921 | 37016 ft | 450 kts | 131° |
| 2026-04-14 11:39 | 44.06724 | 17.74757 | 37006 ft | 451 kts | 130° |
| 2026-04-14 11:40 | 44.02899 | 17.81686 | 37015 ft | 451 kts | 130° |
| 2026-04-14 11:40 | 43.99045 | 17.88608 | 37018 ft | 452 kts | 130° |
| 2026-04-14 11:41 | 43.95207 | 17.95438 | 37025 ft | 452 kts | 130° |
| 2026-04-14 11:41 | 43.91335 | 18.02311 | 37015 ft | 452 kts | 130° |
| 2026-04-14 11:42 | 43.87445 | 18.09200 | 37014 ft | 453 kts | 131° |
| 2026-04-14 11:42 | 43.83548 | 18.16084 | 37015 ft | 454 kts | 131° |
| 2026-04-14 11:43 | 43.79667 | 18.22934 | 37021 ft | 454 kts | 130° |
| 2026-04-14 11:43 | 43.75761 | 18.29812 | 37020 ft | 454 kts | 131° |
| 2026-04-14 11:44 | 43.71846 | 18.36694 | 37023 ft | 455 kts | 131° |
| 2026-04-14 11:44 | 43.67923 | 18.43560 | 37033 ft | 455 kts | 131° |
| 2026-04-14 11:45 | 43.63997 | 18.50424 | 37040 ft | 454 kts | 131° |
| 2026-04-14 11:45 | 43.60093 | 18.57235 | 37035 ft | 454 kts | 131° |
| 2026-04-14 11:46 | 43.56157 | 18.64067 | 37042 ft | 454 kts | 131° |
| 2026-04-14 11:46 | 43.52213 | 18.70895 | 37042 ft | 454 kts | 131° |
| 2026-04-14 11:47 | 43.48277 | 18.77710 | 37042 ft | 454 kts | 131° |
| 2026-04-14 11:47 | 43.44363 | 18.84481 | 37033 ft | 454 kts | 131° |
| 2026-04-14 11:48 | 43.40415 | 18.91292 | 37040 ft | 454 kts | 131° |
| 2026-04-14 11:48 | 43.36485 | 18.98060 | 37038 ft | 454 kts | 131° |
| 2026-04-14 11:49 | 43.32519 | 19.04857 | 37035 ft | 455 kts | 132° |
| 2026-04-14 11:49 | 43.28573 | 19.11601 | 37037 ft | 455 kts | 132° |
| 2026-04-14 11:50 | 43.24594 | 19.18394 | 37024 ft | 455 kts | 132° |
| 2026-04-14 11:50 | 43.20614 | 19.25155 | 37033 ft | 456 kts | 132° |
| 2026-04-14 11:51 | 43.14646 | 19.35277 | 37038 ft | 456 kts | 132° |
| 2026-04-14 11:51 | 43.10668 | 19.42040 | 37040 ft | 456 kts | 132° |
| 2026-04-14 11:52 | 43.06667 | 19.48807 | 37043 ft | 456 kts | 132° |
| 2026-04-14 11:52 | 43.02670 | 19.55527 | 37046 ft | 457 kts | 132° |
| 2026-04-14 11:53 | 42.98662 | 19.62253 | 37040 ft | 457 kts | 132° |
| 2026-04-14 11:53 | 42.94644 | 19.69008 | 37037 ft | 457 kts | 132° |
| 2026-04-14 11:54 | 42.90655 | 19.75722 | 37043 ft | 458 kts | 132° |
| 2026-04-14 11:54 | 42.86627 | 19.82460 | 37040 ft | 458 kts | 133° |
| 2026-04-14 11:55 | 42.82586 | 19.89183 | 37043 ft | 458 kts | 133° |
| 2026-04-14 11:55 | 42.78532 | 19.95904 | 37058 ft | 458 kts | 133° |
| 2026-04-14 11:56 | 42.74516 | 20.02578 | 37064 ft | 458 kts | 133° |
| 2026-04-14 11:56 | 42.70463 | 20.09299 | 37072 ft | 459 kts | 133° |
| 2026-04-14 11:57 | 42.66429 | 20.15968 | 37052 ft | 458 kts | 133° |
| 2026-04-14 11:57 | 42.62362 | 20.22662 | 37076 ft | 459 kts | 133° |
| 2026-04-14 11:58 | 42.58309 | 20.29310 | 37069 ft | 458 kts | 133° |
| 2026-04-14 11:58 | 42.54233 | 20.35988 | 37073 ft | 459 kts | 133° |
| 2026-04-14 11:59 | 42.50148 | 20.42675 | 37076 ft | 460 kts | 133° |
| 2026-04-14 11:59 | 42.46084 | 20.49312 | 37072 ft | 460 kts | 134° |
| 2026-04-14 12:00 | 42.41975 | 20.55998 | 37069 ft | 461 kts | 134° |
| 2026-04-14 12:00 | 42.37892 | 20.62620 | 37078 ft | 461 kts | 134° |
| 2026-04-14 12:01 | 42.33777 | 20.69298 | 37083 ft | 461 kts | 134° |
| 2026-04-14 12:01 | 42.29667 | 20.75954 | 37086 ft | 461 kts | 134° |
| 2026-04-14 12:02 | 42.25566 | 20.82567 | 37073 ft | 462 kts | 134° |
| 2026-04-14 12:02 | 42.21435 | 20.89222 | 37085 ft | 462 kts | 134° |
| 2026-04-14 12:03 | 42.17291 | 20.95875 | 37091 ft | 463 kts | 134° |
| 2026-04-14 12:03 | 42.13161 | 21.02483 | 37100 ft | 463 kts | 134° |
| 2026-04-14 12:04 | 42.09299 | 21.09490 | 37102 ft | 467 kts | 128° |
| 2026-04-14 12:04 | 42.05722 | 21.16749 | 37104 ft | 467 kts | 128° |
| 2026-04-14 12:05 | 42.02105 | 21.24021 | 37113 ft | 467 kts | 128° |
| 2026-04-14 12:05 | 41.98489 | 21.31275 | 37118 ft | 466 kts | 129° |
| 2026-04-14 12:06 | 41.94891 | 21.38487 | 37116 ft | 466 kts | 129° |
| 2026-04-14 12:06 | 41.91271 | 21.45728 | 37125 ft | 466 kts | 129° |
| 2026-04-14 12:07 | 41.87668 | 21.52914 | 37123 ft | 466 kts | 129° |
| 2026-04-14 12:07 | 41.84041 | 21.60137 | 37116 ft | 465 kts | 129° |
| 2026-04-14 12:08 | 41.80437 | 21.67304 | 37116 ft | 465 kts | 129° |
| 2026-04-14 12:08 | 41.76809 | 21.74506 | 37119 ft | 466 kts | 129° |
| 2026-04-14 12:09 | 41.73167 | 21.81693 | 37113 ft | 466 kts | 129° |
| 2026-04-14 12:09 | 41.69544 | 21.88822 | 37115 ft | 466 kts | 129° |
| 2026-04-14 12:10 | 41.65893 | 21.95994 | 37118 ft | 466 kts | 130° |
| 2026-04-14 12:10 | 41.62230 | 22.03185 | 37126 ft | 467 kts | 130° |
| 2026-04-14 12:11 | 41.58593 | 22.10326 | 37141 ft | 467 kts | 130° |
| 2026-04-14 12:11 | 41.54912 | 22.17517 | 37131 ft | 467 kts | 130° |
| 2026-04-14 12:12 | 41.51249 | 22.24643 | 37148 ft | 468 kts | 130° |
| 2026-04-14 12:12 | 41.47552 | 22.31830 | 37154 ft | 468 kts | 130° |
| 2026-04-14 12:13 | 41.43883 | 22.38947 | 37169 ft | 468 kts | 130° |
| 2026-04-14 12:13 | 41.40181 | 22.46114 | 37167 ft | 468 kts | 130° |
| 2026-04-14 12:14 | 41.36482 | 22.53251 | 37166 ft | 468 kts | 131° |
| 2026-04-14 12:14 | 41.33404 | 22.59175 | 37181 ft | 468 kts | 131° |
| 2026-04-14 12:15 | 41.29097 | 22.67458 | 37196 ft | 468 kts | 131° |
| 2026-04-14 12:15 | 41.25386 | 22.74578 | 37206 ft | 467 kts | 132° |
| 2026-04-14 12:16 | 41.22161 | 22.80309 | 37195 ft | 463 kts | 136° |
| 2026-04-14 12:16 | 41.18039 | 22.86876 | 37191 ft | 462 kts | 138° |
| 2026-04-14 12:17 | 41.13877 | 22.93329 | 37197 ft | 463 kts | 137° |
| 2026-04-14 12:17 | 41.09740 | 22.99891 | 37199 ft | 464 kts | 136° |
| 2026-04-14 12:18 | 41.05627 | 23.06519 | 37207 ft | 464 kts | 136° |
| 2026-04-14 12:18 | 41.01515 | 23.13139 | 37180 ft | 465 kts | 137° |
| 2026-04-14 12:19 | 40.97375 | 23.19747 | 37183 ft | 467 kts | 137° |
| 2026-04-14 12:19 | 40.93238 | 23.26327 | 37190 ft | 468 kts | 137° |
| 2026-04-14 12:20 | 40.89063 | 23.32967 | 37189 ft | 469 kts | 137° |
| 2026-04-14 12:20 | 40.84901 | 23.39573 | 37199 ft | 469 kts | 137° |
| 2026-04-14 12:21 | 40.80704 | 23.46203 | 37186 ft | 470 kts | 137° |
| 2026-04-14 12:21 | 40.76503 | 23.52832 | 37197 ft | 471 kts | 137° |
| 2026-04-14 12:22 | 40.72322 | 23.59430 | 37179 ft | 472 kts | 137° |
| 2026-04-14 12:22 | 40.68091 | 23.66086 | 37188 ft | 473 kts | 137° |
| 2026-04-14 12:23 | 40.63869 | 23.72699 | 37190 ft | 474 kts | 138° |
| 2026-04-14 12:23 | 40.59621 | 23.79340 | 37196 ft | 475 kts | 138° |
| 2026-04-14 12:24 | 40.55347 | 23.86014 | 37198 ft | 476 kts | 138° |
| 2026-04-14 12:24 | 40.51072 | 23.92677 | 37206 ft | 477 kts | 138° |
| 2026-04-14 12:25 | 40.46814 | 23.99302 | 37210 ft | 477 kts | 138° |
| 2026-04-14 12:25 | 40.42524 | 24.05964 | 37190 ft | 477 kts | 138° |
| 2026-04-14 12:26 | 40.38250 | 24.12571 | 37189 ft | 477 kts | 138° |
| 2026-04-14 12:26 | 40.33939 | 24.19228 | 37194 ft | 478 kts | 138° |
| 2026-04-14 12:27 | 40.29645 | 24.25845 | 37196 ft | 478 kts | 138° |
| 2026-04-14 12:27 | 40.25325 | 24.32498 | 37205 ft | 479 kts | 138° |
| 2026-04-14 12:28 | 40.20994 | 24.39151 | 37199 ft | 479 kts | 139° |
| 2026-04-14 12:28 | 40.16664 | 24.45779 | 37197 ft | 479 kts | 139° |
| 2026-04-14 12:29 | 40.12358 | 24.52362 | 37204 ft | 479 kts | 139° |
| 2026-04-14 12:29 | 40.08014 | 24.58989 | 37205 ft | 479 kts | 139° |
| 2026-04-14 12:30 | 40.03671 | 24.65596 | 37197 ft | 479 kts | 139° |
| 2026-04-14 12:30 | 39.99322 | 24.72199 | 37202 ft | 479 kts | 139° |
| 2026-04-14 12:31 | 39.94972 | 24.78792 | 37202 ft | 479 kts | 139° |
| 2026-04-14 12:31 | 39.90642 | 24.85343 | 37197 ft | 479 kts | 139° |
| 2026-04-14 12:32 | 39.86287 | 24.91919 | 37199 ft | 479 kts | 139° |
| 2026-04-14 12:32 | 39.81918 | 24.98494 | 37192 ft | 479 kts | 139° |
| 2026-04-14 12:33 | 39.77574 | 25.05007 | 37187 ft | 478 kts | 139° |
| 2026-04-14 12:33 | 39.73203 | 25.11546 | 37185 ft | 478 kts | 139° |
| 2026-04-14 12:34 | 39.68865 | 25.18040 | 37190 ft | 478 kts | 139° |
| 2026-04-14 12:34 | 39.64490 | 25.24588 | 37195 ft | 478 kts | 139° |
| 2026-04-14 12:35 | 39.60124 | 25.31103 | 37195 ft | 478 kts | 139° |
| 2026-04-14 12:35 | 39.55778 | 25.37567 | 37182 ft | 478 kts | 139° |
| 2026-04-14 12:36 | 39.51382 | 25.44085 | 37161 ft | 479 kts | 139° |
| 2026-04-14 12:36 | 39.46989 | 25.50580 | 37171 ft | 479 kts | 140° |
| 2026-04-14 12:37 | 39.42613 | 25.57043 | 37177 ft | 479 kts | 140° |
| 2026-04-14 12:37 | 39.38204 | 25.63543 | 37182 ft | 479 kts | 140° |
| 2026-04-14 12:38 | 39.31608 | 25.73222 | 37172 ft | 480 kts | 140° |
| 2026-04-14 12:39 | 39.27211 | 25.79671 | 37175 ft | 480 kts | 139° |
| 2026-04-14 12:39 | 39.22793 | 25.86159 | 37178 ft | 481 kts | 139° |
| 2026-04-14 12:40 | 39.18363 | 25.92642 | 37159 ft | 480 kts | 139° |
| 2026-04-14 12:40 | 39.13955 | 25.99057 | 37149 ft | 481 kts | 139° |
| 2026-04-14 12:41 | 39.09517 | 26.05507 | 37152 ft | 481 kts | 139° |
| 2026-04-14 12:41 | 39.05067 | 26.11971 | 37166 ft | 481 kts | 139° |
| 2026-04-14 12:42 | 39.00627 | 26.18412 | 37166 ft | 481 kts | 139° |
| 2026-04-14 12:42 | 38.96192 | 26.24821 | 37166 ft | 481 kts | 139° |
| 2026-04-14 12:43 | 38.91744 | 26.31237 | 37159 ft | 481 kts | 140° |
| 2026-04-14 12:43 | 38.87282 | 26.37678 | 37162 ft | 483 kts | 137° |
| 2026-04-14 12:44 | 38.83747 | 26.45106 | 37169 ft | 500 kts | 117° |
| 2026-04-14 12:44 | 38.82048 | 26.53844 | 37168 ft | 509 kts | 102° |
| 2026-04-14 12:45 | 38.80398 | 26.67251 | 37159 ft | 509 kts | 102° |
| 2026-04-14 12:45 | 38.79270 | 26.76227 | 37171 ft | 510 kts | 102° |
| 2026-04-14 12:46 | 38.78138 | 26.85227 | 37163 ft | 510 kts | 102° |
| 2026-04-14 12:46 | 38.76652 | 26.94091 | 37151 ft | 505 kts | 114° |
| 2026-04-14 12:47 | 38.73543 | 27.01948 | 37149 ft | 492 kts | 132° |
| 2026-04-14 12:47 | 38.69447 | 27.08927 | 37131 ft | 489 kts | 134° |
| 2026-04-14 12:48 | 38.65351 | 27.15893 | 37144 ft | 489 kts | 134° |
| 2026-04-14 12:48 | 38.61247 | 27.22870 | 37147 ft | 490 kts | 134° |
| 2026-04-14 12:49 | 38.57150 | 27.29798 | 37150 ft | 491 kts | 134° |
| 2026-04-14 12:49 | 38.53022 | 27.36771 | 37155 ft | 492 kts | 134° |
| 2026-04-14 12:50 | 38.46838 | 27.47190 | 37163 ft | 492 kts | 134° |
| 2026-04-14 12:51 | 38.42692 | 27.54167 | 37164 ft | 492 kts | 133° |
| 2026-04-14 12:51 | 38.38551 | 27.61106 | 37161 ft | 493 kts | 134° |
| 2026-04-14 12:52 | 38.34373 | 27.68069 | 37152 ft | 493 kts | 133° |
| 2026-04-14 12:52 | 38.30226 | 27.74970 | 37163 ft | 494 kts | 133° |
| 2026-04-14 12:53 | 38.25768 | 27.81564 | 37164 ft | 485 kts | 145° |
| 2026-04-14 12:53 | 38.20455 | 27.86611 | 37169 ft | 477 kts | 153° |
| 2026-04-14 12:54 | 38.15019 | 27.91459 | 37171 ft | 478 kts | 152° |
| 2026-04-14 12:54 | 38.09569 | 27.96346 | 37170 ft | 479 kts | 152° |
| 2026-04-14 12:54 | 38.06841 | 27.98792 | 36928 ft | 480 kts | 152° |
| 2026-04-14 12:55 | 38.04117 | 28.01232 | 36652 ft | 480 kts | 152° |
| 2026-04-14 12:55 | 38.01378 | 28.03679 | 36390 ft | 482 kts | 152° |
| 2026-04-14 12:55 | 37.98669 | 28.06091 | 36132 ft | 482 kts | 152° |
| 2026-04-14 12:55 | 37.95925 | 28.08533 | 35864 ft | 482 kts | 152° |
| 2026-04-14 12:56 | 37.93173 | 28.10978 | 35612 ft | 482 kts | 152° |
| 2026-04-14 12:56 | 37.90422 | 28.13421 | 35368 ft | 482 kts | 152° |
| 2026-04-14 12:56 | 37.87659 | 28.15871 | 34489 ft | 488 kts | 151° |
| 2026-04-14 12:56 | 37.84867 | 28.18343 | 33782 ft | 487 kts | 151° |
| 2026-04-14 12:57 | 37.82107 | 28.20796 | 33189 ft | 483 kts | 151° |
| 2026-04-14 12:57 | 37.79396 | 28.23204 | 32578 ft | 479 kts | 150° |
| 2026-04-14 12:57 | 37.76673 | 28.25619 | 31964 ft | 476 kts | 150° |
| 2026-04-14 12:57 | 37.73967 | 28.28010 | 31364 ft | 472 kts | 150° |
| 2026-04-14 12:58 | 37.71287 | 28.30376 | 30772 ft | 468 kts | 150° |
| 2026-04-14 12:58 | 37.68624 | 28.32725 | 30169 ft | 464 kts | 150° |
| 2026-04-14 12:58 | 37.66017 | 28.35023 | 29557 ft | 459 kts | 150° |
| 2026-04-14 12:58 | 37.63408 | 28.37319 | 28993 ft | 454 kts | 150° |
| 2026-04-14 12:59 | 37.60827 | 28.39589 | 28434 ft | 449 kts | 150° |
| 2026-04-14 12:59 | 37.58277 | 28.41830 | 27893 ft | 444 kts | 149° |
| 2026-04-14 12:59 | 37.55779 | 28.44027 | 27371 ft | 439 kts | 149° |
| 2026-04-14 12:59 | 37.53280 | 28.46226 | 26851 ft | 434 kts | 149° |
| 2026-04-14 13:00 | 37.50808 | 28.48379 | 26325 ft | 429 kts | 152° |
| 2026-04-14 13:00 | 37.48212 | 28.50104 | 25874 ft | 415 kts | 163° |
| 2026-04-14 13:00 | 37.45514 | 28.51235 | 25442 ft | 404 kts | 170° |
| 2026-04-14 13:00 | 37.42823 | 28.52178 | 25003 ft | 399 kts | 170° |
| 2026-04-14 13:01 | 37.40163 | 28.53121 | 24554 ft | 395 kts | 169° |
| 2026-04-14 13:01 | 37.37532 | 28.54060 | 24103 ft | 392 kts | 169° |
| 2026-04-14 13:01 | 37.34921 | 28.54995 | 23631 ft | 388 kts | 169° |
| 2026-04-14 13:01 | 37.32337 | 28.55920 | 23148 ft | 384 kts | 169° |
| 2026-04-14 13:02 | 37.29808 | 28.56823 | 22701 ft | 380 kts | 169° |
| 2026-04-14 13:02 | 37.27277 | 28.57724 | 22258 ft | 377 kts | 169° |
| 2026-04-14 13:02 | 37.24767 | 28.58614 | 21801 ft | 374 kts | 169° |
| 2026-04-14 13:02 | 37.22261 | 28.59501 | 21350 ft | 371 kts | 169° |
| 2026-04-14 13:03 | 37.19783 | 28.60375 | 20902 ft | 369 kts | 169° |
| 2026-04-14 13:03 | 37.17315 | 28.61241 | 20453 ft | 366 kts | 169° |
| 2026-04-14 13:03 | 37.14866 | 28.62101 | 19978 ft | 366 kts | 169° |
| 2026-04-14 13:03 | 37.12436 | 28.62957 | 19507 ft | 366 kts | 169° |
| 2026-04-14 13:04 | 37.09979 | 28.63818 | 18998 ft | 366 kts | 169° |
| 2026-04-14 13:04 | 37.07514 | 28.64670 | 18487 ft | 367 kts | 169° |
| 2026-04-14 13:04 | 37.05024 | 28.65316 | 17920 ft | 361 kts | 182° |
| 2026-04-14 13:04 | 37.02604 | 28.64837 | 17436 ft | 349 kts | 205° |
| 2026-04-14 13:05 | 37.00612 | 28.63276 | 16953 ft | 340 kts | 227° |
| 2026-04-14 13:05 | 36.99257 | 28.60884 | 16447 ft | 336 kts | 245° |
| 2026-04-14 13:05 | 36.98171 | 28.58295 | 15949 ft | 336 kts | 236° |
| 2026-04-14 13:05 | 36.96460 | 28.56398 | 15855 ft | 327 kts | 207° |
| 2026-04-14 13:06 | 36.95033 | 28.55839 | 15811 ft | 323 kts | 188° |
| 2026-04-14 13:06 | 36.92841 | 28.56177 | 15740 ft | 319 kts | 159° |
| 2026-04-14 13:06 | 36.91086 | 28.57819 | 15675 ft | 319 kts | 128° |
| 2026-04-14 13:06 | 36.90205 | 28.60356 | 15609 ft | 323 kts | 98° |
| 2026-04-14 13:07 | 36.90422 | 28.63080 | 15541 ft | 323 kts | 68° |
| 2026-04-14 13:07 | 36.91514 | 28.65523 | 15440 ft | 324 kts | 57° |
| 2026-04-14 13:07 | 36.92717 | 28.67903 | 15078 ft | 324 kts | 57° |
| 2026-04-14 13:07 | 36.93926 | 28.70292 | 14687 ft | 326 kts | 57° |
| 2026-04-14 13:08 | 36.95145 | 28.72696 | 14276 ft | 328 kts | 57° |
| 2026-04-14 13:08 | 36.96370 | 28.75110 | 13825 ft | 330 kts | 58° |
| 2026-04-14 13:08 | 36.97607 | 28.77548 | 13379 ft | 331 kts | 58° |
| 2026-04-14 13:08 | 36.98843 | 28.79985 | 12953 ft | 331 kts | 58° |
| 2026-04-14 13:09 | 37.00074 | 28.82412 | 12532 ft | 331 kts | 58° |
| 2026-04-14 13:09 | 37.01309 | 28.84847 | 12105 ft | 330 kts | 58° |
| 2026-04-14 13:09 | 37.02527 | 28.87248 | 11486 ft | 331 kts | 58° |
| 2026-04-14 13:09 | 37.03549 | 28.89757 | 11028 ft | 317 kts | 74° |
| 2026-04-14 13:10 | 37.04017 | 28.92397 | 10594 ft | 304 kts | 81° |
| 2026-04-14 13:10 | 37.04310 | 28.94975 | 9970 ft | 299 kts | 93° |
| 2026-04-14 13:10 | 37.03831 | 28.97484 | 9146 ft | 297 kts | 119° |
| 2026-04-14 13:10 | 37.02548 | 28.99479 | 8351 ft | 295 kts | 144° |
| 2026-04-14 13:11 | 37.00748 | 29.00584 | 7598 ft | 292 kts | 168° |
| 2026-04-14 13:11 | 36.98738 | 29.00685 | 6852 ft | 289 kts | 193° |
| 2026-04-14 13:11 | 36.96914 | 28.99710 | 6183 ft | 284 kts | 211° |
| 2026-04-14 13:11 | 36.95253 | 28.98477 | 5758 ft | 270 kts | 211° |
| 2026-04-14 13:12 | 36.93706 | 28.97235 | 5398 ft | 260 kts | 219° |
| 2026-04-14 13:12 | 36.92356 | 28.95791 | 5062 ft | 257 kts | 219° |
| 2026-04-14 13:12 | 36.90999 | 28.94349 | 4713 ft | 254 kts | 219° |
| 2026-04-14 13:12 | 36.89654 | 28.92927 | 4378 ft | 250 kts | 219° |
| 2026-04-14 13:13 | 36.88335 | 28.91537 | 4032 ft | 245 kts | 219° |
| 2026-04-14 13:13 | 36.87071 | 28.90202 | 3732 ft | 232 kts | 219° |
| 2026-04-14 13:13 | 36.85860 | 28.88932 | 3435 ft | 223 kts | 217° |
| 2026-04-14 13:13 | 36.84555 | 28.87935 | 3095 ft | 218 kts | 210° |
| 2026-04-14 13:14 | 36.83262 | 28.86994 | 2772 ft | 214 kts | 210° |
| 2026-04-14 13:14 | 36.81988 | 28.86064 | 2431 ft | 210 kts | 212° |
| 2026-04-14 13:14 | 36.80781 | 28.85109 | 2110 ft | 200 kts | 218° |
| 2026-04-14 13:14 | 36.79792 | 28.83952 | 1939 ft | 192 kts | 229° |
| 2026-04-14 13:15 | 36.78970 | 28.82728 | 1805 ft | 177 kts | 231° |
| 2026-04-14 13:15 | 36.78144 | 28.81698 | 1666 ft | 157 kts | 212° |
| 2026-04-14 13:15 | 36.77167 | 28.81267 | 1393 ft | 144 kts | 195° |
| 2026-04-14 13:15 | 36.76240 | 28.80960 | 1117 ft | 136 kts | 196° |
| 2026-04-14 13:16 | 36.75329 | 28.80658 | 778 ft | 134 kts | 198° |
| 2026-04-14 13:16 | 36.74444 | 28.80345 | 516 ft | 130 kts | 198° |
| 2026-04-14 13:16 | 36.73578 | 28.80030 | 300 ft | 130 kts | 197° |
| 2026-04-14 13:16 | 36.72714 | 28.79726 | 68 ft | 129 kts | 195° |
| 2026-04-14 13:17 | 36.71904 | 28.79454 | 13 ft | 105 kts | 196° |
| 2026-04-14 13:17 | 36.71364 | 28.79268 | 13 ft | 56 kts | 195° |
| 2026-04-14 13:17 | 36.71085 | 28.79175 | 13 ft | 35 kts | 194° |
| 2026-04-14 13:17 | 36.70874 | 28.79103 | 13 ft | 27 kts | 196° |
| 2026-04-14 13:18 | 36.70724 | 28.79041 | 14 ft | 19 kts | 212° |
| 2026-04-14 13:18 | 36.70622 | 28.78931 | 13 ft | 19 kts | 226° |
| 2026-04-14 13:18 | 36.70571 | 28.78849 | 13 ft | 12 kts | 257° |
| 2026-04-14 13:18 | 36.70606 | 28.78796 | 13 ft | 7 kts | 356° |
| 2026-04-14 13:19 | 36.70668 | 28.78820 | 13 ft | 15 kts | 16° |
| 2026-04-14 13:19 | 36.70821 | 28.78872 | 13 ft | 30 kts | 15° |
| 2026-04-14 13:19 | 36.71053 | 28.78951 | 13 ft | 37 kts | 15° |
| 2026-04-14 13:19 | 36.71229 | 28.79010 | 13 ft | 19 kts | 14° |
| 2026-04-14 13:20 | 36.71328 | 28.79007 | 13 ft | 17 kts | 304° |
| 2026-04-14 13:20 | 36.71352 | 28.78875 | 14 ft | 9 kts | 284° |
| 2026-04-14 13:20 | 36.71388 | 28.78838 | 13 ft | 7 kts | 17° |
| 2026-04-14 13:20 | 36.71439 | 28.78857 | 13 ft | 9 kts | 15° |
| 2026-04-14 13:21 | 36.71494 | 28.78875 | 12 ft | 8 kts | 15° |
| 2026-04-14 13:21 | 36.71563 | 28.78899 | 12 ft | 13 kts | 15° |
| 2026-04-14 13:21 | 36.71645 | 28.78928 | 12 ft | 12 kts | 15° |
| 2026-04-14 13:21 | 36.71721 | 28.78954 | 14 ft | 11 kts | 15° |
| 2026-04-14 13:22 | 36.71790 | 28.78977 | 12 ft | 10 kts | 15° |
| 2026-04-14 13:22 | 36.71855 | 28.79000 | 12 ft | 10 kts | 16° |
| 2026-04-14 13:22 | 36.71931 | 28.79026 | 12 ft | 11 kts | 15° |
| 2026-04-14 13:22 | 36.72004 | 28.79051 | 12 ft | 10 kts | 15° |
| 2026-04-14 13:23 | 36.72070 | 28.79074 | 12 ft | 10 kts | 15° |
| 2026-04-14 13:23 | 36.72121 | 28.79091 | 12 ft | 5 kts | 10° |
| 2026-04-14 13:23 | 36.72139 | 28.79067 | 12 ft | 3 kts | 293° |
| 2026-04-14 13:23 | 36.72144 | 28.79042 | 12 ft | 3 kts | 284° |
| 2026-04-14 13:24 | 36.72148 | 28.79023 | 12 ft | 2 kts | 285° |
| 2026-04-14 13:24 | 36.72149 | 28.79017 | 12 ft | 0 kts | 285° |